createdAt,value
2022-10-04T00:00:43.386Z,15.48
2022-10-04T00:02:02.694Z,15.48
2022-10-04T00:03:23.711Z,15.48
2022-10-04T00:04:40.104Z,15.45
2022-10-04T00:05:42.322Z,15.43
2022-10-04T00:06:55.239Z,15.41
2022-10-04T00:08:30.972Z,15.38
2022-10-04T00:09:47.679Z,15.33
2022-10-04T00:10:50.152Z,15.29
2022-10-04T00:11:56.936Z,15.31
2022-10-04T00:13:05.922Z,15.27
2022-10-04T00:14:18.224Z,15.28
2022-10-04T00:15:32.528Z,15.27
2022-10-04T00:16:40.842Z,15.28
2022-10-04T00:17:42.905Z,15.24
2022-10-04T00:18:46.150Z,15.26
2022-10-04T00:19:50.875Z,15.25
2022-10-04T00:20:55.454Z,15.23
2022-10-04T00:21:57.080Z,15.20
2022-10-04T00:23:36.491Z,15.21
2022-10-04T00:25:01.659Z,15.20
2022-10-04T00:26:10.711Z,15.20
2022-10-04T00:27:26.287Z,15.20
2022-10-04T00:28:36.761Z,15.20
2022-10-04T00:29:44.479Z,15.19
2022-10-04T00:31:07.465Z,15.19
2022-10-04T00:32:11.863Z,15.21
2022-10-04T00:33:38.390Z,15.20
2022-10-04T00:34:52.387Z,15.17
2022-10-04T00:35:54.249Z,15.14
2022-10-04T00:36:57.188Z,15.13
2022-10-04T00:38:07.315Z,15.11
2022-10-04T00:39:08.958Z,15.07
2022-10-04T00:40:20.653Z,15.06
2022-10-04T00:41:23.492Z,15.04
2022-10-04T00:42:40.237Z,15.08
2022-10-04T00:43:49.726Z,15.06
2022-10-04T00:45:02.397Z,15.10
2022-10-04T00:46:21.282Z,15.10
2022-10-04T00:47:39.269Z,15.08
2022-10-04T00:48:53.977Z,15.08
2022-10-04T00:50:21.606Z,15.08
2022-10-04T00:51:38.523Z,15.07
2022-10-04T00:52:53.979Z,15.07
2022-10-04T00:54:09.090Z,15.08
2022-10-04T00:55:43.191Z,15.07
2022-10-04T00:56:54.931Z,15.06
2022-10-04T00:58:02.723Z,15.05
2022-10-04T00:59:40.070Z,15.06
2022-10-04T01:00:43.186Z,15.05
2022-10-04T01:01:54.276Z,15.05
2022-10-04T01:03:11.908Z,15.06
2022-10-04T01:04:41.160Z,15.05
2022-10-04T01:05:53.747Z,15.04
2022-10-04T01:07:02.157Z,15.04
2022-10-04T01:08:13.604Z,15.04
2022-10-04T01:09:18.507Z,15.06
2022-10-04T01:10:47.343Z,15.07
2022-10-04T01:12:10.156Z,15.06
2022-10-04T01:13:39.069Z,15.08
2022-10-04T01:15:04.924Z,15.07
2022-10-04T01:16:19.723Z,15.06
2022-10-04T01:17:22.543Z,15.04
2022-10-04T01:18:24.199Z,15.04
2022-10-04T01:19:29.704Z,15.03
2022-10-04T01:20:50.232Z,15.04
2022-10-04T01:22:18.335Z,15.02
2022-10-04T01:23:42.081Z,14.99
2022-10-04T01:24:45.917Z,14.95
2022-10-04T01:25:51.953Z,14.95
2022-10-04T01:26:54.340Z,14.95
2022-10-04T01:27:56.170Z,14.93
2022-10-04T01:29:08.814Z,14.94
2022-10-04T01:30:16.970Z,14.94
2022-10-04T01:31:18.996Z,14.91
2022-10-04T01:32:21.056Z,14.92
2022-10-04T01:33:22.912Z,14.92
2022-10-04T01:34:28.070Z,14.93
2022-10-04T01:35:29.843Z,14.93
2022-10-04T01:36:33.903Z,14.94
2022-10-04T01:37:36.692Z,14.94
2022-10-04T01:38:38.515Z,14.94
2022-10-04T01:39:40.837Z,14.91
2022-10-04T01:40:54.102Z,14.91
2022-10-04T01:42:20.791Z,14.90
2022-10-04T01:43:33.001Z,14.87
2022-10-04T01:44:55.276Z,14.88
2022-10-04T01:46:09.104Z,14.86
2022-10-04T01:47:24.281Z,14.83
2022-10-04T01:48:34.603Z,14.81
2022-10-04T01:49:41.934Z,14.79
2022-10-04T01:50:51.327Z,14.79
2022-10-04T01:52:20.224Z,14.80
2022-10-04T01:53:35.458Z,14.76
2022-10-04T01:54:49.748Z,14.75
2022-10-04T01:56:10.737Z,14.74
2022-10-04T01:57:34.975Z,14.73
2022-10-04T01:58:58.969Z,14.71
2022-10-04T02:00:10.084Z,14.69
2022-10-04T02:01:26.411Z,14.69
2022-10-04T02:02:51.143Z,14.67
2022-10-04T02:03:56.904Z,14.66
2022-10-04T02:05:01.805Z,14.66
2022-10-04T02:06:08.612Z,14.65
2022-10-04T02:07:16.304Z,14.64
2022-10-04T02:08:27.915Z,14.65
2022-10-04T02:09:38.755Z,14.63
2022-10-04T02:10:43.573Z,14.60
2022-10-04T02:11:54.052Z,14.61
2022-10-04T02:12:57.650Z,14.58
2022-10-04T02:14:00.408Z,14.56
2022-10-04T02:15:07.861Z,14.55
2022-10-04T02:16:12.198Z,14.54
2022-10-04T02:17:15.837Z,14.51
2022-10-04T02:18:22.670Z,14.50
2022-10-04T02:19:34.381Z,14.49
2022-10-04T02:20:40.647Z,14.48
2022-10-04T02:21:44.338Z,14.46
2022-10-04T02:22:52.329Z,14.46
2022-10-04T02:23:54.547Z,14.46
2022-10-04T02:24:57.921Z,14.43
2022-10-04T02:25:59.693Z,14.42
2022-10-04T02:27:01.552Z,14.42
2022-10-04T02:28:05.252Z,14.40
2022-10-04T02:29:09.498Z,14.41
2022-10-04T02:30:14.068Z,14.41
2022-10-04T02:31:42.871Z,14.38
2022-10-04T02:32:57.969Z,14.38
2022-10-04T02:34:00.735Z,14.32
2022-10-04T02:35:04.140Z,14.33
2022-10-04T02:36:09.318Z,14.30
2022-10-04T02:37:12.397Z,14.29
2022-10-04T02:38:23.750Z,14.30
2022-10-04T02:39:33.866Z,14.29
2022-10-04T02:40:49.197Z,14.31
2022-10-04T02:42:09.192Z,14.28
2022-10-04T02:43:22.819Z,14.28
2022-10-04T02:44:45.767Z,14.27
2022-10-04T02:46:07.330Z,14.25
2022-10-04T02:47:29.594Z,14.24
2022-10-04T02:48:45.793Z,14.23
2022-10-04T02:50:06.091Z,14.20
2022-10-04T02:51:39.017Z,14.19
2022-10-04T02:52:52.379Z,14.16
2022-10-04T02:54:07.052Z,14.13
2022-10-04T02:55:24.788Z,14.10
2022-10-04T02:56:27.040Z,14.07
2022-10-04T02:57:32.957Z,14.08
2022-10-04T02:58:40.358Z,14.07
2022-10-04T02:59:42.200Z,14.08
2022-10-04T03:00:57.638Z,14.06
2022-10-04T03:02:02.199Z,14.05
2022-10-04T03:03:16.469Z,14.04
2022-10-04T03:04:23.299Z,14.00
2022-10-04T03:05:25.222Z,13.95
2022-10-04T03:06:32.863Z,13.96
2022-10-04T03:07:38.651Z,13.93
2022-10-04T03:08:55.085Z,13.92
2022-10-04T03:09:56.903Z,13.88
2022-10-04T03:11:01.756Z,13.86
2022-10-04T03:12:05.754Z,13.86
2022-10-04T03:13:08.196Z,13.85
2022-10-04T03:14:16.942Z,13.85
2022-10-04T03:15:19.822Z,13.82
2022-10-04T03:16:23.620Z,13.83
2022-10-04T03:17:25.711Z,13.83
2022-10-04T03:18:28.902Z,13.82
2022-10-04T03:19:33.507Z,13.80
2022-10-04T03:20:40.318Z,13.79
2022-10-04T03:21:44.880Z,13.79
2022-10-04T03:22:52.111Z,13.78
2022-10-04T03:23:54.448Z,13.76
2022-10-04T03:24:58.360Z,13.77
2022-10-04T03:26:33.311Z,13.79
2022-10-04T03:27:36.436Z,13.76
2022-10-04T03:28:38.568Z,13.77
2022-10-04T03:29:45.009Z,13.77
2022-10-04T03:30:48.960Z,13.76
2022-10-04T03:31:58.109Z,13.78
2022-10-04T03:33:00.388Z,13.77
2022-10-04T03:34:02.530Z,13.78
2022-10-04T03:35:15.275Z,13.79
2022-10-04T03:36:19.288Z,13.78
2022-10-04T03:37:21.747Z,13.79
2022-10-04T03:38:26.352Z,13.79
2022-10-04T03:39:36.202Z,13.81
2022-10-04T03:40:45.939Z,13.79
2022-10-04T03:41:48.373Z,13.79
2022-10-04T03:42:50.432Z,13.79
2022-10-04T03:43:55.407Z,13.80
2022-10-04T03:45:20.454Z,13.81
2022-10-04T03:46:25.305Z,13.80
2022-10-04T03:47:32.481Z,13.79
2022-10-04T03:48:50.123Z,13.79
2022-10-04T03:49:55.316Z,13.78
2022-10-04T03:50:59.180Z,13.76
2022-10-04T03:52:03.065Z,13.77
2022-10-04T03:53:24.258Z,13.79
2022-10-04T03:54:27.961Z,13.76
2022-10-04T03:55:41.122Z,13.76
2022-10-04T03:56:42.975Z,13.75
2022-10-04T03:57:45.063Z,13.75
2022-10-04T03:58:49.648Z,13.75
2022-10-04T03:59:52.781Z,13.72
2022-10-04T04:01:35.704Z,13.76
2022-10-04T04:03:09.439Z,13.74
2022-10-04T04:04:39.117Z,13.71
2022-10-04T04:05:50.161Z,13.70
2022-10-04T04:07:03.122Z,13.67
2022-10-04T04:08:32.377Z,13.64
2022-10-04T04:09:44.196Z,13.63
2022-10-04T04:10:54.855Z,13.61
2022-10-04T04:12:00.257Z,13.61
2022-10-04T04:13:33.241Z,13.59
2022-10-04T04:14:35.176Z,13.57
2022-10-04T04:15:45.476Z,13.58
2022-10-04T04:16:48.520Z,13.56
2022-10-04T04:17:55.401Z,13.53
2022-10-04T04:19:03.789Z,13.52
2022-10-04T04:20:35.739Z,13.53
2022-10-04T04:21:38.028Z,13.49
2022-10-04T04:22:46.539Z,13.49
2022-10-04T04:23:55.303Z,13.47
2022-10-04T04:25:15.619Z,13.48
2022-10-04T04:26:34.913Z,13.48
2022-10-04T04:27:40.686Z,13.45
2022-10-04T04:28:50.236Z,13.49
2022-10-04T04:29:54.993Z,13.48
2022-10-04T04:31:08.401Z,13.50
2022-10-04T04:32:25.191Z,13.51
2022-10-04T04:33:42.933Z,13.52
2022-10-04T04:35:00.568Z,13.53
2022-10-04T04:36:07.624Z,13.55
2022-10-04T04:37:11.128Z,13.53
2022-10-04T04:38:25.838Z,13.54
2022-10-04T04:39:45.157Z,13.52
2022-10-04T04:40:47.674Z,13.52
2022-10-04T04:41:50.728Z,13.52
2022-10-04T04:42:57.561Z,13.52
2022-10-04T04:43:59.908Z,13.49
2022-10-04T04:45:14.198Z,13.53
2022-10-04T04:46:27.039Z,13.52
2022-10-04T04:47:42.060Z,13.55
2022-10-04T04:48:46.586Z,13.53
2022-10-04T04:49:49.881Z,13.55
2022-10-04T04:50:57.680Z,13.56
2022-10-04T04:52:00.034Z,13.54
2022-10-04T04:53:13.935Z,13.55
2022-10-04T04:54:18.825Z,13.52
2022-10-04T04:55:26.153Z,13.51
2022-10-04T04:56:30.732Z,13.51
2022-10-04T04:57:33.942Z,13.50
2022-10-04T04:58:42.361Z,13.50
2022-10-04T04:59:55.590Z,13.51
2022-10-04T05:01:00.323Z,13.48
2022-10-04T05:02:03.453Z,13.46
2022-10-04T05:03:18.517Z,13.48
2022-10-04T05:04:23.746Z,13.46
2022-10-04T05:05:34.253Z,13.44
2022-10-04T05:06:39.184Z,13.43
2022-10-04T05:07:43.469Z,13.40
2022-10-04T05:08:50.951Z,13.40
2022-10-04T05:09:52.682Z,13.38
2022-10-04T05:11:09.430Z,13.38
2022-10-04T05:12:22.606Z,13.36
2022-10-04T05:13:34.334Z,13.36
2022-10-04T05:14:41.054Z,13.32
2022-10-04T05:15:44.285Z,13.31
2022-10-04T05:16:55.157Z,13.31
2022-10-04T05:17:57.390Z,13.31
2022-10-04T05:19:04.122Z,13.29
2022-10-04T05:20:06.682Z,13.28
2022-10-04T05:21:28.532Z,13.27
2022-10-04T05:22:32.731Z,13.23
2022-10-04T05:23:35.304Z,13.20
2022-10-04T05:24:44.674Z,13.21
2022-10-04T05:25:47.198Z,13.17
2022-10-04T05:27:01.157Z,13.17
2022-10-04T05:28:03.127Z,13.12
2022-10-04T05:29:15.503Z,13.09
2022-10-04T05:30:56.028Z,13.08
2022-10-04T05:32:29.433Z,13.08
2022-10-04T05:33:49.649Z,13.06
2022-10-04T05:34:52.915Z,13.04
2022-10-04T05:36:25.274Z,13.07
2022-10-04T05:37:44.199Z,13.05
2022-10-04T05:39:36.600Z,13.02
2022-10-04T05:41:01.142Z,12.95
2022-10-04T05:42:41.433Z,12.93
2022-10-04T05:43:50.229Z,12.91
2022-10-04T05:44:57.940Z,12.90
2022-10-04T05:46:20.588Z,12.90
2022-10-04T05:47:27.992Z,12.88
2022-10-04T05:48:30.617Z,12.89
2022-10-04T05:49:46.290Z,12.91
2022-10-04T05:50:48.779Z,12.89
2022-10-04T05:52:01.558Z,12.92
2022-10-04T05:53:20.976Z,12.93
2022-10-04T05:54:28.310Z,12.91
2022-10-04T05:55:43.309Z,12.91
2022-10-04T05:57:21.065Z,12.91
2022-10-04T05:58:49.247Z,12.88
2022-10-04T06:00:15.648Z,12.83
2022-10-04T06:01:38.210Z,12.82
2022-10-04T06:03:15.502Z,12.82
2022-10-04T06:05:08.473Z,12.82
2022-10-04T06:06:55.855Z,12.83
2022-10-04T06:08:09.402Z,12.82
2022-10-04T06:09:47.434Z,12.84
2022-10-04T06:11:15.451Z,12.85
2022-10-04T06:12:59.277Z,12.86
2022-10-04T06:14:24.813Z,12.88
2022-10-04T06:15:52.901Z,12.89
2022-10-04T06:17:09.698Z,12.90
2022-10-04T06:18:45.132Z,12.93
2022-10-04T06:20:08.324Z,12.98
2022-10-04T06:21:50.260Z,13.02
2022-10-04T06:23:06.471Z,13.05
2022-10-04T06:24:27.111Z,13.06
2022-10-04T06:25:43.459Z,13.09
2022-10-04T06:26:52.551Z,13.10
2022-10-04T06:27:57.850Z,13.15
2022-10-04T06:29:10.517Z,13.18
2022-10-04T06:30:18.884Z,13.21
2022-10-04T06:31:32.468Z,13.24
2022-10-04T06:33:05.173Z,13.29
2022-10-04T06:34:37.559Z,13.30
2022-10-04T06:36:46.951Z,13.33
2022-10-04T06:38:02.965Z,13.33
2022-10-04T06:39:42.018Z,13.39
2022-10-04T06:41:16.086Z,13.40
2022-10-04T06:43:22.518Z,13.45
2022-10-04T06:44:46.508Z,13.46
2022-10-04T06:46:18.472Z,13.47
2022-10-04T06:47:38.497Z,13.49
2022-10-04T06:49:07.884Z,13.52
2022-10-04T06:50:42.503Z,13.53
2022-10-04T06:52:22.482Z,13.57
2022-10-04T06:54:07.379Z,13.60
2022-10-04T06:55:21.374Z,13.61
2022-10-04T06:57:01.643Z,13.64
2022-10-04T06:58:16.096Z,13.64
2022-10-04T07:00:02.430Z,13.69
2022-10-04T07:01:28.352Z,13.71
2022-10-04T07:02:49.125Z,13.72
2022-10-04T07:04:15.373Z,13.75
2022-10-04T07:05:37.544Z,13.76
2022-10-04T07:06:51.896Z,13.78
2022-10-04T07:08:12.808Z,13.79
2022-10-04T07:09:27.353Z,13.83
2022-10-04T07:10:56.662Z,13.87
2022-10-04T07:12:12.413Z,13.89
2022-10-04T07:13:14.126Z,13.91
2022-10-04T07:14:44.063Z,13.94
2022-10-04T07:16:21.386Z,13.99
2022-10-04T07:17:36.066Z,14.01
2022-10-04T07:18:56.502Z,14.03
2022-10-04T07:20:01.229Z,14.03
2022-10-04T07:21:17.062Z,14.07
2022-10-04T07:22:35.943Z,14.09
2022-10-04T07:23:58.688Z,14.12
2022-10-04T07:25:19.491Z,14.13
2022-10-04T07:26:37.916Z,14.16
2022-10-04T07:27:47.782Z,14.17
2022-10-04T07:29:10.543Z,14.17
2022-10-04T07:30:20.661Z,14.20
2022-10-04T07:31:34.564Z,14.20
2022-10-04T07:32:44.651Z,14.21
2022-10-04T07:33:55.009Z,14.23
2022-10-04T07:35:09.619Z,14.23
2022-10-04T07:36:21.854Z,14.21
2022-10-04T07:37:30.883Z,14.23
2022-10-04T07:38:46.002Z,14.25
2022-10-04T07:40:18.403Z,14.29
2022-10-04T07:41:32.122Z,14.32
2022-10-04T07:42:54.715Z,14.35
2022-10-04T07:44:16.041Z,14.40
2022-10-04T07:45:29.897Z,14.43
2022-10-04T07:47:03.874Z,14.48
2022-10-04T07:48:23.005Z,14.51
2022-10-04T07:49:26.899Z,14.53
2022-10-04T07:50:39.708Z,14.58
2022-10-04T07:52:18.506Z,14.67
2022-10-04T07:53:46.964Z,14.69
2022-10-04T07:55:39.120Z,14.73
2022-10-04T07:56:54.383Z,14.73
2022-10-04T07:58:14.005Z,14.75
2022-10-04T07:59:29.609Z,14.78
2022-10-04T08:01:06.650Z,14.82
2022-10-04T08:02:32.815Z,14.84
2022-10-04T08:04:22.102Z,14.87
2022-10-04T08:05:32.680Z,14.89
2022-10-04T08:07:13.383Z,14.91
2022-10-04T08:08:27.771Z,14.92
2022-10-04T08:09:57.930Z,14.96
2022-10-04T08:11:37.853Z,15.00
2022-10-04T08:13:16.910Z,15.04
2022-10-04T08:14:45.655Z,15.06
2022-10-04T08:15:47.754Z,15.07
2022-10-04T08:17:15.389Z,15.13
2022-10-04T08:19:06.391Z,15.17
2022-10-04T08:20:36.340Z,15.21
2022-10-04T08:22:07.627Z,15.26
2022-10-04T08:23:45.173Z,15.30
2022-10-04T08:25:25.471Z,15.33
2022-10-04T08:26:52.267Z,15.36
2022-10-04T08:28:31.992Z,15.42
2022-10-04T08:30:15.020Z,15.49
2022-10-04T08:32:01.816Z,15.55
2022-10-04T08:33:42.233Z,15.60
2022-10-04T08:35:05.142Z,15.64
2022-10-04T08:36:56.560Z,15.73
2022-10-04T08:38:21.153Z,15.79
2022-10-04T08:40:18.647Z,15.85
2022-10-04T08:41:35.285Z,15.87
2022-10-04T08:42:58.761Z,15.88
2022-10-04T08:44:41.492Z,15.97
2022-10-04T08:46:17.576Z,15.99
2022-10-04T08:47:51.150Z,16.04
2022-10-04T08:49:08.048Z,16.09
2022-10-04T08:50:27.635Z,16.11
2022-10-04T08:51:41.116Z,16.14
2022-10-04T08:53:39.443Z,16.23
2022-10-04T08:55:35.032Z,16.30
2022-10-04T08:57:04.841Z,16.37
2022-10-04T08:58:31.560Z,16.41
2022-10-04T09:00:13.728Z,16.46
2022-10-04T09:02:10.033Z,16.56
2022-10-04T09:04:01.511Z,16.61
2022-10-04T09:05:23.880Z,16.65
2022-10-04T09:06:31.285Z,16.67
2022-10-04T09:07:52.071Z,16.72
2022-10-04T09:09:34.099Z,16.80
2022-10-04T09:10:48.420Z,16.80
2022-10-04T09:12:20.031Z,16.89
2022-10-04T09:13:59.144Z,16.96
2022-10-04T09:15:35.101Z,16.99
2022-10-04T09:16:46.844Z,17.02
2022-10-04T09:18:29.466Z,17.13
2022-10-04T09:20:36.802Z,17.19
2022-10-04T09:21:49.814Z,17.21
2022-10-04T09:23:33.616Z,17.31
2022-10-04T09:24:45.235Z,17.32
2022-10-04T09:26:20.063Z,17.36
2022-10-04T09:27:56.687Z,17.42
2022-10-04T09:29:38.310Z,17.48
2022-10-04T09:31:39.623Z,17.53
2022-10-04T09:33:04.244Z,17.58
2022-10-04T09:34:27.054Z,17.62
2022-10-04T09:36:22.630Z,17.72
2022-10-04T09:37:50.548Z,17.77
2022-10-04T09:39:29.024Z,17.81
2022-10-04T09:40:47.399Z,17.88
2022-10-04T09:41:55.078Z,17.96
2022-10-04T09:43:28.318Z,18.13
2022-10-04T09:44:46.056Z,18.22
2022-10-04T09:46:17.903Z,18.58
2022-10-04T09:47:41.161Z,18.85
2022-10-04T09:49:18.843Z,19.30
2022-10-04T09:50:42.805Z,19.69
2022-10-04T09:52:05.759Z,20.02
2022-10-04T09:53:47.218Z,20.52
2022-10-04T09:55:22.540Z,20.98
2022-10-04T09:57:18.702Z,21.55
2022-10-04T09:58:51.184Z,21.90
2022-10-04T10:00:22.188Z,22.39
2022-10-04T10:02:04.445Z,22.74
2022-10-04T10:03:54.314Z,23.17
2022-10-04T10:05:30.232Z,23.42
2022-10-04T10:06:34.612Z,23.53
2022-10-04T10:07:52.262Z,23.67
2022-10-04T10:10:06.159Z,23.84
2022-10-04T10:12:02.351Z,23.83
2022-10-04T10:13:50.931Z,23.81
2022-10-04T10:15:01.168Z,23.70
2022-10-04T10:16:33.048Z,23.67
2022-10-04T10:17:58.399Z,23.64
2022-10-04T10:19:38.239Z,23.74
2022-10-04T10:21:44.709Z,23.93
2022-10-04T10:23:02.948Z,24.02
2022-10-04T10:24:19.360Z,24.03
2022-10-04T10:25:41.532Z,24.13
2022-10-04T10:26:55.310Z,24.31
2022-10-04T10:28:46.704Z,24.52
2022-10-04T10:29:59.305Z,24.57
2022-10-04T10:31:35.948Z,24.77
2022-10-04T10:32:55.804Z,24.86
2022-10-04T10:34:42.178Z,25.11
2022-10-04T10:36:40.819Z,25.35
2022-10-04T10:38:20.418Z,25.50
2022-10-04T10:40:09.173Z,25.66
2022-10-04T10:41:48.098Z,25.88
2022-10-04T10:43:09.663Z,25.97
2022-10-04T10:44:26.640Z,26.06
2022-10-04T10:45:50.693Z,26.12
2022-10-04T10:47:20.351Z,26.11
2022-10-04T10:49:02.656Z,26.21
2022-10-04T10:50:58.494Z,26.22
2022-10-04T10:52:43.440Z,26.18
2022-10-04T10:54:13.531Z,26.10
2022-10-04T10:55:36.410Z,26.02
2022-10-04T10:57:10.663Z,25.96
2022-10-04T10:58:58.734Z,25.90
2022-10-04T11:00:19.789Z,25.78
2022-10-04T11:01:53.309Z,25.69
2022-10-04T11:03:35.601Z,25.59
2022-10-04T11:04:43.758Z,25.49
2022-10-04T11:06:24.273Z,25.46
2022-10-04T11:07:46.265Z,25.38
2022-10-04T11:09:09.290Z,25.33
2022-10-04T11:10:14.263Z,25.25
2022-10-04T11:11:50.308Z,25.21
2022-10-04T11:13:25.788Z,25.18
2022-10-04T11:15:06.163Z,25.10
2022-10-04T11:16:47.652Z,25.03
2022-10-04T11:18:18.790Z,24.96
2022-10-04T11:19:41.503Z,24.88
2022-10-04T11:21:25.644Z,24.78
2022-10-04T11:23:01.929Z,24.69
2022-10-04T11:24:06.543Z,24.61
2022-10-04T11:25:08.176Z,24.48
2022-10-04T11:27:13.695Z,24.39
2022-10-04T11:28:27.873Z,24.28
2022-10-04T11:29:55.234Z,24.18
2022-10-04T11:31:45.778Z,24.08
2022-10-04T11:33:28.236Z,24.00
2022-10-04T11:35:26.539Z,23.89
2022-10-04T11:37:01.754Z,23.76
2022-10-04T11:38:35.515Z,23.66
2022-10-04T11:40:06.594Z,23.58
2022-10-04T11:41:47.645Z,23.49
2022-10-04T11:43:11.252Z,23.36
2022-10-04T11:44:34.142Z,23.30
2022-10-04T11:46:23.225Z,23.24
2022-10-04T11:48:01.483Z,23.14
2022-10-04T11:49:14.405Z,23.07
2022-10-04T11:50:24.768Z,23.02
2022-10-04T11:52:08.336Z,22.96
2022-10-04T11:54:12.243Z,22.89
2022-10-04T11:56:04.248Z,22.82
2022-10-04T11:57:39.886Z,22.79
2022-10-04T11:59:25.211Z,22.73
2022-10-04T12:00:58.845Z,22.68
2022-10-04T12:02:29.430Z,22.64
2022-10-04T12:03:59.194Z,22.63
2022-10-04T12:05:33.404Z,22.64
2022-10-04T12:07:22.564Z,22.63
2022-10-04T12:08:48.189Z,22.59
2022-10-04T12:10:10.821Z,22.56
2022-10-04T12:11:52.167Z,22.54
2022-10-04T12:13:12.343Z,22.52
2022-10-04T12:14:59.419Z,22.48
2022-10-04T12:16:41.140Z,22.43
2022-10-04T12:18:05.173Z,22.38
2022-10-04T12:19:39.531Z,22.37
2022-10-04T12:21:07.007Z,22.34
2022-10-04T12:22:29.716Z,22.33
2022-10-04T12:23:53.116Z,22.33
2022-10-04T12:25:31.995Z,22.33
2022-10-04T12:27:31.163Z,22.37
2022-10-04T12:29:06.118Z,22.37
2022-10-04T12:30:30.832Z,22.34
2022-10-04T12:31:36.796Z,22.37
2022-10-04T12:33:22.110Z,22.41
2022-10-04T12:35:04.590Z,22.45
2022-10-04T12:36:36.193Z,22.48
2022-10-04T12:38:08.746Z,22.50
2022-10-04T12:39:38.252Z,22.52
2022-10-04T12:41:45.826Z,22.50
2022-10-04T12:43:43.439Z,22.48
2022-10-04T12:45:32.063Z,22.49
2022-10-04T12:46:45.895Z,22.44
2022-10-04T12:48:24.021Z,22.50
2022-10-04T12:49:34.632Z,22.48
2022-10-04T12:50:48.397Z,22.50
2022-10-04T12:52:20.626Z,22.56
2022-10-04T12:53:43.555Z,22.55
2022-10-04T12:54:53.002Z,22.57
2022-10-04T12:56:06.583Z,22.61
2022-10-04T12:57:29.459Z,22.67
2022-10-04T12:59:02.840Z,22.69
2022-10-04T13:00:25.093Z,22.73
2022-10-04T13:01:51.505Z,22.74
2022-10-04T13:03:05.158Z,22.77
2022-10-04T13:04:26.393Z,22.82
2022-10-04T13:06:09.943Z,22.89
2022-10-04T13:07:14.690Z,22.90
2022-10-04T13:08:41.411Z,22.95
2022-10-04T13:10:24.927Z,22.97
2022-10-04T13:11:53.251Z,23.05
2022-10-04T13:13:29.763Z,23.09
2022-10-04T13:14:45.073Z,23.09
2022-10-04T13:18:43.754Z,23.21
2022-10-04T13:19:56.574Z,23.20
2022-10-04T13:21:14.584Z,23.24
2022-10-04T13:22:57.623Z,23.27
2022-10-04T13:24:54.944Z,23.28
2022-10-04T13:26:11.371Z,23.32
2022-10-04T13:27:22.286Z,23.33
2022-10-04T13:29:03.292Z,23.38
2022-10-04T13:30:23.663Z,23.36
2022-10-04T13:31:49.053Z,23.41
2022-10-04T13:33:10.387Z,23.42
2022-10-04T13:34:32.557Z,23.42
2022-10-04T13:35:52.117Z,23.44
2022-10-04T13:37:37.866Z,23.47
2022-10-04T13:38:48.969Z,23.43
2022-10-04T13:40:21.915Z,23.48
2022-10-04T13:42:05.155Z,23.49
2022-10-04T13:43:33.160Z,23.50
2022-10-04T13:45:08.109Z,23.52
2022-10-04T13:46:52.188Z,23.51
2022-10-04T13:48:15.163Z,23.52
2022-10-04T13:49:36.808Z,23.52
2022-10-04T13:51:23.652Z,23.57
2022-10-04T13:53:18.176Z,23.57
2022-10-04T13:54:58.043Z,23.57
2022-10-04T13:56:36.966Z,23.57
2022-10-04T13:58:38.854Z,23.59
2022-10-04T14:00:05.231Z,23.58
2022-10-04T14:02:00.780Z,23.58
2022-10-04T14:03:32.702Z,23.59
2022-10-04T14:05:08.213Z,23.56
2022-10-04T14:07:06.894Z,23.60
2022-10-04T14:08:30.004Z,23.58
2022-10-04T14:09:55.769Z,23.56
2022-10-04T14:12:18.332Z,23.59
2022-10-04T14:13:58.048Z,23.55
2022-10-04T14:15:56.187Z,23.53
2022-10-04T14:17:31.854Z,23.49
2022-10-04T14:19:06.959Z,23.46
2022-10-04T14:20:36.188Z,23.46
2022-10-04T14:22:08.273Z,23.47
2022-10-04T14:23:33.639Z,23.38
2022-10-04T14:25:21.313Z,23.43
2022-10-04T14:26:48.368Z,23.38
2022-10-04T14:28:21.251Z,23.36
2022-10-04T14:30:12.464Z,23.35
2022-10-04T14:31:36.842Z,23.33
2022-10-04T14:33:35.188Z,23.34
2022-10-04T14:34:55.926Z,23.26
2022-10-04T14:36:40.926Z,23.27
2022-10-04T14:38:47.356Z,23.26
2022-10-04T14:40:29.866Z,23.26
2022-10-04T14:42:28.448Z,23.23
2022-10-04T14:44:03.825Z,23.23
2022-10-04T14:45:21.070Z,23.21
2022-10-04T14:47:13.584Z,23.23
2022-10-04T14:48:50.784Z,23.20
2022-10-04T14:51:01.120Z,23.20
2022-10-04T14:53:04.329Z,23.19
2022-10-04T14:54:28.863Z,23.13
2022-10-04T14:56:20.906Z,23.10
2022-10-04T14:57:50.102Z,23.06
2022-10-04T14:59:23.067Z,23.02
2022-10-04T15:00:56.518Z,22.96
2022-10-04T15:02:01.324Z,22.91
2022-10-04T15:03:28.785Z,22.92
2022-10-04T15:04:48.858Z,22.88
2022-10-04T15:05:53.429Z,22.85
2022-10-04T15:07:30.095Z,22.83
2022-10-04T15:09:18.452Z,22.81
2022-10-04T15:10:33.004Z,22.74
2022-10-04T15:12:21.555Z,22.70
2022-10-04T15:13:39.601Z,22.69
2022-10-04T15:15:30.700Z,22.67
2022-10-04T15:16:58.106Z,22.63
2022-10-04T15:18:22.122Z,22.60
2022-10-04T15:19:50.472Z,22.56
2022-10-04T15:21:32.916Z,22.54
2022-10-04T15:22:54.314Z,22.50
2022-10-04T15:24:18.096Z,22.47
2022-10-04T15:25:57.119Z,22.45
2022-10-04T15:27:33.033Z,22.42
2022-10-04T15:29:17.433Z,22.38
2022-10-04T15:30:34.542Z,22.32
2022-10-04T15:32:04.132Z,22.31
2022-10-04T15:33:32.942Z,22.27
2022-10-04T15:34:48.760Z,22.24
2022-10-04T15:36:02.360Z,22.20
2022-10-04T15:37:04.046Z,22.16
2022-10-04T15:38:53.992Z,22.17
2022-10-04T15:40:18.659Z,22.14
2022-10-04T15:41:42.868Z,22.09
2022-10-04T15:43:19.368Z,22.10
2022-10-04T15:45:01.703Z,22.06
2022-10-04T15:46:25.171Z,22.00
2022-10-04T15:47:51.336Z,21.99
2022-10-04T15:49:14.592Z,21.97
2022-10-04T15:50:56.001Z,21.93
2022-10-04T15:52:39.098Z,21.91
2022-10-04T15:53:55.980Z,21.88
2022-10-04T15:55:36.638Z,21.89
2022-10-04T15:56:41.300Z,21.81
2022-10-04T15:58:04.188Z,21.82
2022-10-04T15:59:39.547Z,21.80
2022-10-04T16:01:21.272Z,21.80
2022-10-04T16:03:07.442Z,21.76
2022-10-04T16:04:40.553Z,21.74
2022-10-04T16:06:08.762Z,21.72
2022-10-04T16:07:40.216Z,21.69
2022-10-04T16:09:18.267Z,21.66
2022-10-04T16:10:58.440Z,21.61
2022-10-04T16:12:06.311Z,21.58
2022-10-04T16:13:16.862Z,21.56
2022-10-04T16:14:56.384Z,21.57
2022-10-04T16:16:16.190Z,21.56
2022-10-04T16:17:48.336Z,21.52
2022-10-04T16:19:43.206Z,21.53
2022-10-04T16:21:06.260Z,21.53
2022-10-04T16:22:33.604Z,21.49
2022-10-04T16:23:39.984Z,21.46
2022-10-04T16:24:51.341Z,21.47
2022-10-04T16:25:57.815Z,21.47
2022-10-04T16:27:50.095Z,21.49
2022-10-04T16:29:24.743Z,21.47
2022-10-04T16:31:07.604Z,21.47
2022-10-04T16:32:29.136Z,21.46
2022-10-04T16:33:55.103Z,21.48
2022-10-04T16:35:08.270Z,21.44
2022-10-04T16:36:27.373Z,21.45
2022-10-04T16:38:22.913Z,21.49
2022-10-04T16:40:07.945Z,21.47
2022-10-04T16:41:39.986Z,21.44
2022-10-04T16:43:03.938Z,21.43
2022-10-04T16:44:29.158Z,21.43
2022-10-04T16:45:54.790Z,21.42
2022-10-04T16:47:03.443Z,21.39
2022-10-04T16:48:50.243Z,21.42
2022-10-04T16:50:00.249Z,21.39
2022-10-04T16:51:04.734Z,21.38
2022-10-04T16:52:36.219Z,21.40
2022-10-04T16:54:21.455Z,21.40
2022-10-04T16:55:53.188Z,21.40
2022-10-04T16:56:56.362Z,21.36
2022-10-04T16:58:30.570Z,21.37
2022-10-04T16:59:38.305Z,21.33
2022-10-04T17:00:40.277Z,21.29
2022-10-04T17:02:23.152Z,21.33
2022-10-04T17:03:35.670Z,21.30
2022-10-04T17:04:38.135Z,21.27
2022-10-04T17:06:11.651Z,21.30
2022-10-04T17:07:23.260Z,21.27
2022-10-04T17:08:47.725Z,21.27
2022-10-04T17:10:05.842Z,21.26
2022-10-04T17:11:41.040Z,21.26
2022-10-04T17:13:24.586Z,21.27
2022-10-04T17:14:49.201Z,21.23
2022-10-04T17:16:13.558Z,21.22
2022-10-04T17:17:46.145Z,21.22
2022-10-04T17:19:14.427Z,21.20
2022-10-04T17:20:22.184Z,21.14
2022-10-04T17:21:38.409Z,21.14
2022-10-04T17:23:29.262Z,21.15
2022-10-04T17:25:10.359Z,21.12
2022-10-04T17:26:26.688Z,21.11
2022-10-04T17:27:46.939Z,21.09
2022-10-04T17:29:38.391Z,21.07
2022-10-04T17:30:57.511Z,21.06
2022-10-04T17:32:25.761Z,21.03
2022-10-04T17:33:59.572Z,21.03
2022-10-04T17:35:39.035Z,21.03
2022-10-04T17:36:50.031Z,20.99
2022-10-04T17:38:10.249Z,21.00
2022-10-04T17:39:29.983Z,20.98
2022-10-04T17:41:04.429Z,20.98
2022-10-04T17:42:24.796Z,20.96
2022-10-04T17:44:06.950Z,20.95
2022-10-04T17:45:41.437Z,20.94
2022-10-04T17:47:23.774Z,20.92
2022-10-04T17:49:00.032Z,20.88
2022-10-04T17:51:02.599Z,20.88
2022-10-04T17:52:36.256Z,20.85